METAR Data
IDs: Format: Raw Decoded Include TAF

Data at: 0944 UTC 07 Dec 2021

KOMN 062350Z 00000KT 10SM SCT030 21/18 A3008 RMK LAST
KOMN 062250Z 25004KT 10SM SCT030 23/18 A3006
KOMN 062150Z 25005KT 10SM FEW030 25/17 A3004
KOMN 062050Z 25005KT 10SM FEW030 26/17 A3003
KOMN 061950Z 25006KT 10SM SCT030 27/17 A3004
KOMN 061850Z 25006KT 10SM SCT030 26/17 A3005
KOMN 061750Z 24006KT 10SM SCT030 26/18 A3007
KOMN 061650Z 22005KT 7SM FEW030 25/18 A3010
KOMN 061550Z 27005KT 7SM CLR 23/19 A3014
KOMN 061450Z 00000KT 5SM BR CLR 20/20 A3015
KOMN 061350Z 00000KT 3SM FG CLR 17/17 A3015
KOMN 061250Z 00000KT 1/4SM FG VV002 15/15 A3013 RMK FIRST
KOMN 061150Z 00000KT 1/4SM FG VV002 15/15 A3013 RMK FIRST
KOMN 052350Z 00000KT 10SM SCT050 20/17 A3013 RMK LAST
KOMN 052250Z 00000KT 10SM SCT050 20/17 A3013
KOMN 052150Z 10004KT 10SM SCT050 22/16 A3012